createdAt,value
2019-01-11T00:00:32.305Z,35.40
2019-01-11T00:03:00.897Z,35.10
2019-01-11T00:05:29.501Z,34.93
2019-01-11T00:07:58.122Z,36.23
2019-01-11T00:10:26.579Z,34.83
2019-01-11T00:12:55.126Z,34.57
2019-01-11T00:15:23.656Z,34.50
2019-01-11T00:17:52.319Z,38.50
2019-01-11T00:20:21.002Z,42.00
2019-01-11T00:22:49.615Z,39.27
2019-01-11T00:25:18.217Z,37.83
2019-01-11T00:27:46.760Z,38.80
2019-01-11T00:30:15.646Z,37.17
2019-01-11T00:32:44.297Z,37.70
2019-01-11T00:35:12.756Z,39.23
2019-01-11T00:37:41.320Z,40.77
2019-01-11T00:40:09.878Z,48.00
2019-01-11T00:42:38.462Z,47.07
2019-01-11T00:45:09.751Z,40.57
2019-01-11T00:47:38.416Z,39.23
2019-01-11T00:50:08.909Z,40.60
2019-01-11T00:52:37.518Z,37.77
2019-01-11T00:55:08.391Z,39.47
2019-01-11T00:57:36.954Z,38.33
2019-01-11T01:00:17.662Z,37.77
2019-01-11T01:02:46.372Z,38.63
2019-01-11T01:05:15.071Z,36.70
2019-01-11T01:07:43.737Z,38.93
2019-01-11T01:10:12.304Z,47.63
2019-01-11T01:12:40.954Z,43.93
2019-01-11T01:15:11.702Z,39.33
2019-01-11T01:17:40.121Z,37.07
2019-01-11T01:20:16.738Z,37.13
2019-01-11T01:22:45.277Z,37.47
2019-01-11T01:25:13.734Z,37.63
2019-01-11T01:27:42.275Z,38.37
2019-01-11T01:30:16.919Z,36.97
2019-01-11T01:32:45.538Z,37.47
2019-01-11T01:35:14.080Z,37.53
2019-01-11T01:37:42.767Z,37.23
2019-01-11T01:40:13.899Z,37.57
2019-01-11T01:42:42.569Z,38.10
2019-01-11T01:45:16.577Z,35.43
2019-01-11T01:47:45.274Z,38.37
2019-01-11T01:50:13.949Z,38.83
2019-01-11T01:52:42.476Z,36.80
2019-01-11T01:55:13.261Z,37.13
2019-01-11T01:57:41.833Z,36.37
2019-01-11T02:00:13.616Z,34.53
2019-01-11T02:02:42.115Z,36.60
2019-01-11T02:05:10.913Z,32.90
2019-01-11T02:07:39.404Z,35.17
2019-01-11T02:10:10.844Z,36.97
2019-01-11T02:12:39.561Z,34.77
2019-01-11T02:15:09.717Z,34.40
2019-01-11T02:17:38.360Z,35.80
2019-01-11T02:20:10.262Z,35.80
2019-01-11T02:22:38.799Z,35.33
2019-01-11T02:25:08.057Z,36.00
2019-01-11T02:27:36.620Z,33.20
2019-01-11T02:30:08.501Z,36.30
2019-01-11T02:32:37.308Z,34.40
2019-01-11T02:35:05.853Z,36.73
2019-01-11T02:37:34.582Z,34.90
2019-01-11T02:40:03.662Z,35.90
2019-01-11T02:42:32.317Z,35.80
2019-01-11T02:45:00.948Z,36.00
2019-01-11T02:47:29.425Z,35.70
2019-01-11T02:49:58.170Z,32.57
2019-01-11T02:52:26.758Z,34.00
2019-01-11T02:54:55.259Z,36.43
2019-01-11T02:57:23.786Z,37.77
2019-01-11T02:59:52.398Z,35.87
2019-01-11T03:02:20.913Z,37.10
2019-01-11T03:04:49.790Z,35.83
2019-01-11T03:07:18.216Z,37.23
2019-01-11T03:09:46.931Z,37.70
2019-01-11T03:12:15.495Z,36.23
2019-01-11T03:14:44.066Z,36.17
2019-01-11T03:17:12.777Z,36.77
2019-01-11T03:19:47.726Z,36.63
2019-01-11T03:22:11.653Z,35.60
2019-01-11T03:24:40.241Z,38.77
2019-01-11T03:27:08.734Z,38.73
2019-01-11T03:29:37.293Z,36.07
2019-01-11T03:32:05.863Z,38.17
2019-01-11T03:34:36.198Z,40.63
2019-01-11T03:37:04.780Z,39.00
2019-01-11T03:39:33.383Z,41.23
2019-01-11T03:42:03.530Z,41.87
2019-01-11T03:44:31.994Z,44.33
2019-01-11T03:47:00.511Z,43.13
2019-01-11T03:49:29.157Z,41.23
2019-01-11T03:51:57.855Z,38.83
2019-01-11T03:54:26.377Z,36.90
2019-01-11T03:56:55.023Z,38.07
2019-01-11T03:59:23.581Z,37.07
2019-01-11T04:01:52.136Z,39.43
2019-01-11T04:04:20.762Z,40.33
2019-01-11T04:06:49.324Z,41.07
2019-01-11T04:09:17.920Z,43.13
2019-01-11T04:11:46.537Z,44.33
2019-01-11T04:14:15.260Z,45.23
2019-01-11T04:16:43.830Z,40.73
2019-01-11T04:19:12.454Z,43.50
2019-01-11T04:21:42.653Z,43.93
2019-01-11T04:24:11.236Z,44.43
2019-01-11T04:26:39.882Z,45.87
2019-01-11T04:29:08.441Z,43.60
2019-01-11T04:31:36.958Z,46.17
2019-01-11T04:34:05.621Z,40.67
2019-01-11T04:36:34.290Z,38.50
2019-01-11T04:39:04.127Z,36.13
2019-01-11T04:41:32.719Z,30.57
2019-01-11T04:44:01.339Z,34.40
2019-01-11T04:46:29.879Z,33.83
2019-01-11T04:48:58.414Z,30.70
2019-01-11T04:51:26.853Z,26.20
2019-01-11T04:53:55.460Z,27.30
2019-01-11T04:56:24.097Z,27.23
2019-01-11T04:58:52.737Z,27.67
2019-01-11T05:01:21.274Z,29.13
2019-01-11T05:03:49.854Z,24.83
2019-01-11T05:06:18.331Z,19.57
2019-01-11T05:08:47.106Z,13.17
2019-01-11T05:11:15.624Z,13.20
2019-01-11T05:13:44.171Z,12.23
2019-01-11T05:16:12.594Z,11.87
2019-01-11T05:18:41.320Z,12.77
2019-01-11T05:21:09.829Z,11.57
2019-01-11T05:23:38.409Z,12.67
2019-01-11T05:26:07.110Z,12.37
2019-01-11T05:28:35.770Z,12.03
2019-01-11T05:31:04.568Z,12.87
2019-01-11T05:33:33.147Z,11.97
2019-01-11T05:36:01.566Z,11.70
2019-01-11T05:38:30.043Z,12.13
2019-01-11T05:40:58.619Z,13.47
2019-01-11T05:43:27.358Z,12.30
2019-01-11T05:45:55.982Z,12.37
2019-01-11T05:48:24.623Z,12.17
2019-01-11T05:50:53.052Z,12.00
2019-01-11T05:53:21.549Z,13.40
2019-01-11T05:55:50.081Z,12.40
2019-01-11T05:58:22.994Z,13.07
2019-01-11T06:00:51.532Z,12.23
2019-01-11T06:03:20.230Z,12.70
2019-01-11T06:05:48.722Z,11.93
2019-01-11T06:08:18.897Z,11.37
2019-01-11T06:10:47.639Z,11.43
2019-01-11T06:13:16.078Z,10.77
2019-01-11T06:15:44.724Z,10.77
2019-01-11T06:18:13.671Z,11.87
2019-01-11T06:20:42.441Z,11.27
2019-01-11T06:23:11.038Z,10.30
2019-01-11T06:25:39.654Z,9.77
2019-01-11T06:28:08.157Z,10.00
2019-01-11T06:30:36.959Z,9.10
2019-01-11T06:33:05.558Z,8.53
2019-01-11T06:35:35.389Z,9.07
2019-01-11T06:38:03.965Z,8.60
2019-01-11T06:40:32.575Z,8.37
2019-01-11T06:43:03.663Z,9.20
2019-01-11T06:45:31.316Z,9.47
2019-01-11T06:47:59.957Z,9.77
2019-01-11T06:50:28.560Z,9.07
2019-01-11T06:52:57.178Z,9.40
2019-01-11T06:55:25.763Z,8.20
2019-01-11T06:57:54.436Z,8.50
2019-01-11T07:00:22.995Z,7.30
2019-01-11T07:02:51.733Z,7.30
2019-01-11T07:05:20.154Z,7.30
2019-01-11T07:07:48.611Z,6.50
2019-01-11T07:10:19.704Z,7.17
2019-01-11T07:12:48.243Z,6.93
2019-01-11T07:15:16.778Z,6.77
2019-01-11T07:17:45.360Z,7.03
2019-01-11T07:20:14.906Z,6.07
2019-01-11T07:22:43.538Z,5.60
2019-01-11T07:25:13.968Z,6.50
2019-01-11T07:27:44.014Z,7.53
2019-01-11T07:30:14.693Z,6.83
2019-01-11T07:32:43.284Z,6.87
2019-01-11T07:35:11.805Z,6.97
2019-01-11T07:37:40.419Z,7.70
2019-01-11T07:40:12.952Z,6.40
2019-01-11T07:42:41.413Z,6.00
2019-01-11T07:45:11.897Z,6.00
2019-01-11T07:47:40.421Z,6.30
2019-01-11T07:50:10.049Z,6.73
2019-01-11T07:52:38.506Z,6.90
2019-01-11T07:55:09.369Z,6.87
2019-01-11T07:57:37.840Z,7.13
2019-01-11T08:00:09.373Z,7.70
2019-01-11T08:02:37.993Z,7.33
2019-01-11T08:05:06.955Z,8.60
2019-01-11T08:07:35.610Z,7.80
2019-01-11T08:10:07.488Z,5.87
2019-01-11T08:12:36.184Z,5.43
2019-01-11T08:15:07.707Z,5.23
2019-01-11T08:17:36.338Z,6.17
2019-01-11T08:20:06.552Z,6.40
2019-01-11T08:22:36.689Z,6.67
2019-01-11T08:25:06.626Z,7.10
2019-01-11T08:27:35.203Z,6.67
2019-01-11T08:30:05.021Z,7.40
2019-01-11T08:32:33.536Z,7.27
2019-01-11T08:35:03.784Z,8.00
2019-01-11T08:37:32.785Z,6.57
2019-01-11T08:40:01.543Z,6.83
2019-01-11T08:42:30.002Z,5.97
2019-01-11T08:45:00.029Z,5.40
2019-01-11T08:47:28.624Z,5.20
2019-01-11T08:49:57.175Z,4.83
2019-01-11T08:52:25.713Z,5.17
2019-01-11T08:54:54.488Z,5.33
2019-01-11T08:57:23.130Z,5.47
2019-01-11T08:59:51.595Z,5.80
2019-01-11T09:02:20.189Z,6.20
2019-01-11T09:04:48.936Z,6.67
2019-01-11T09:07:17.597Z,6.70
2019-01-11T09:09:46.149Z,6.47
2019-01-11T09:12:14.714Z,6.30
2019-01-11T09:14:47.933Z,5.70
2019-01-11T09:17:16.853Z,5.77
2019-01-11T09:19:46.016Z,5.80
2019-01-11T09:22:14.844Z,5.23
2019-01-11T09:24:43.550Z,5.50
2019-01-11T09:27:12.344Z,5.67
2019-01-11T09:29:40.822Z,5.17
2019-01-11T09:32:09.518Z,5.00
2019-01-11T09:34:38.148Z,4.87
2019-01-11T09:37:07.152Z,5.10
2019-01-11T09:39:36.097Z,4.70
2019-01-11T09:42:04.742Z,4.50
2019-01-11T09:44:33.314Z,5.43
2019-01-11T09:47:01.860Z,5.87
2019-01-11T09:49:30.415Z,5.03
2019-01-11T09:51:59.040Z,5.33
2019-01-11T09:54:27.657Z,4.70
2019-01-11T09:56:56.076Z,3.93
2019-01-11T09:59:24.650Z,4.00
2019-01-11T10:01:55.046Z,3.77
2019-01-11T10:04:25.242Z,4.63
2019-01-11T10:06:55.625Z,5.03
2019-01-11T10:09:24.470Z,4.90
2019-01-11T10:11:53.065Z,3.80
2019-01-11T10:14:21.616Z,3.53
2019-01-11T10:16:50.692Z,4.07
2019-01-11T10:19:19.276Z,4.50
2019-01-11T10:21:47.847Z,4.03
2019-01-11T10:24:16.591Z,4.23
2019-01-11T10:26:45.109Z,4.47
2019-01-11T10:29:13.659Z,3.70
2019-01-11T10:31:42.360Z,4.07
2019-01-11T10:34:10.921Z,4.17
2019-01-11T10:36:39.615Z,3.60
2019-01-11T10:39:08.179Z,3.53
2019-01-11T10:41:36.729Z,3.43
2019-01-11T10:44:05.287Z,3.10
2019-01-11T10:46:35.773Z,3.17
2019-01-11T10:49:04.330Z,3.43
2019-01-11T10:51:32.941Z,3.90
2019-01-11T10:54:01.532Z,5.63
2019-01-11T10:56:30.072Z,5.73
2019-01-11T10:58:58.590Z,7.03
2019-01-11T11:01:27.230Z,7.07
2019-01-11T11:03:55.745Z,7.00
2019-01-11T11:06:24.392Z,6.53
2019-01-11T11:08:52.925Z,6.43
2019-01-11T11:11:21.464Z,7.03
2019-01-11T11:13:49.925Z,7.23
2019-01-11T11:16:18.559Z,7.80
2019-01-11T11:18:47.034Z,7.37
2019-01-11T11:21:15.548Z,7.83
2019-01-11T11:23:44.151Z,15.93
2019-01-11T11:26:12.600Z,48.67
2019-01-11T11:28:41.087Z,33.43
2019-01-11T11:31:09.604Z,6.40
2019-01-11T11:33:38.081Z,11.33
2019-01-11T11:36:06.708Z,10.13
2019-01-11T11:38:35.394Z,10.73
2019-01-11T11:41:03.835Z,8.03
2019-01-11T11:43:33.272Z,7.73
2019-01-11T11:46:01.889Z,11.30
2019-01-11T11:48:30.554Z,10.40
2019-01-11T11:50:59.131Z,9.60
2019-01-11T11:53:27.758Z,11.80
2019-01-11T11:55:56.370Z,8.20
2019-01-11T11:58:25.127Z,10.90
2019-01-11T12:00:53.706Z,8.77
2019-01-11T12:03:22.360Z,5.63
2019-01-11T12:05:51.454Z,8.50
2019-01-11T12:08:20.371Z,8.93
2019-01-11T12:10:49.028Z,8.90
2019-01-11T12:13:17.671Z,7.60
2019-01-11T12:15:46.308Z,5.10
2019-01-11T12:18:14.793Z,7.00
2019-01-11T12:20:43.390Z,10.70
2019-01-11T12:23:12.051Z,8.47
2019-01-11T12:25:40.705Z,13.20
2019-01-11T12:28:09.500Z,14.73
2019-01-11T12:30:37.970Z,16.73
2019-01-11T12:33:06.515Z,19.80
2019-01-11T12:35:35.054Z,14.97
2019-01-11T12:38:03.683Z,29.13
2019-01-11T12:40:33.258Z,44.13
2019-01-11T12:43:01.678Z,15.70
2019-01-11T12:45:30.458Z,22.10
2019-01-11T12:47:59.079Z,21.33
2019-01-11T12:50:27.609Z,22.17
2019-01-11T12:52:56.305Z,67.47
2019-01-11T12:55:24.863Z,17.33
2019-01-11T12:57:53.474Z,12.73
2019-01-11T13:00:22.165Z,17.63
2019-01-11T13:02:50.951Z,42.60
2019-01-11T13:05:20.149Z,26.77
2019-01-11T13:07:48.812Z,33.67
2019-01-11T13:10:18.879Z,44.83
2019-01-11T13:12:47.684Z,22.57
2019-01-11T13:15:18.941Z,17.27
2019-01-11T13:17:47.408Z,19.10
2019-01-11T13:20:17.681Z,14.80
2019-01-11T13:22:46.488Z,25.03
2019-01-11T13:25:14.972Z,20.93
2019-01-11T13:27:43.428Z,13.80
2019-01-11T13:30:14.212Z,18.43
2019-01-11T13:32:42.978Z,26.80
2019-01-11T13:35:11.485Z,12.63
2019-01-11T13:37:40.272Z,12.97
2019-01-11T13:40:12.071Z,19.70
2019-01-11T13:42:40.544Z,17.07
2019-01-11T13:45:09.402Z,14.93
2019-01-11T13:47:37.964Z,16.70
2019-01-11T13:50:10.280Z,19.40
2019-01-11T13:52:38.805Z,17.33
2019-01-11T13:55:07.690Z,16.63
2019-01-11T13:57:36.407Z,30.60
2019-01-11T14:00:08.411Z,15.67
2019-01-11T14:02:36.986Z,21.10
2019-01-11T14:05:06.062Z,28.10
2019-01-11T14:07:34.798Z,17.53
2019-01-11T14:10:03.311Z,18.67
2019-01-11T14:12:32.181Z,19.90
2019-01-11T14:15:01.024Z,22.60
2019-01-11T14:17:29.465Z,16.17
2019-01-11T14:19:58.029Z,21.60
2019-01-11T14:22:26.782Z,20.03
2019-01-11T14:24:55.317Z,25.23
2019-01-11T14:27:23.756Z,25.37
2019-01-11T14:29:52.360Z,20.03
2019-01-11T14:32:20.863Z,21.40
2019-01-11T14:34:49.363Z,14.73
2019-01-11T14:37:17.884Z,22.83
2019-01-11T14:39:46.547Z,26.43
2019-01-11T14:42:15.066Z,23.30
2019-01-11T14:44:43.747Z,19.90
2019-01-11T14:47:12.309Z,23.37
2019-01-11T14:49:41.046Z,26.63
2019-01-11T14:52:09.714Z,24.43
2019-01-11T14:54:38.227Z,26.43
2019-01-11T14:57:06.706Z,24.87
2019-01-11T14:59:35.975Z,30.07
2019-01-11T15:02:04.727Z,24.07
2019-01-11T15:04:33.216Z,17.47
2019-01-11T15:07:01.712Z,22.83
2019-01-11T15:09:30.310Z,13.70
2019-01-11T15:11:58.857Z,17.30
2019-01-11T15:14:27.420Z,16.67
2019-01-11T15:16:55.964Z,20.13
2019-01-11T15:19:24.521Z,14.10
2019-01-11T15:21:53.076Z,23.63
2019-01-11T15:24:21.948Z,14.53
2019-01-11T15:26:50.495Z,14.93
2019-01-11T15:29:19.199Z,16.17
2019-01-11T15:31:47.708Z,11.97
2019-01-11T15:34:16.508Z,11.97
2019-01-11T15:36:45.698Z,12.37
2019-01-11T15:39:14.157Z,11.87
2019-01-11T15:41:42.962Z,12.53
2019-01-11T15:44:11.812Z,12.40
2019-01-11T15:46:40.256Z,8.73
2019-01-11T15:49:08.931Z,11.57
2019-01-11T15:51:37.880Z,12.70
2019-01-11T15:54:06.604Z,8.70
2019-01-11T15:56:35.401Z,11.47
2019-01-11T15:59:04.007Z,12.00
2019-01-11T16:01:32.466Z,12.43
2019-01-11T16:04:03.531Z,13.13
2019-01-11T16:06:32.356Z,13.07
2019-01-11T16:09:04.726Z,21.53
2019-01-11T16:11:43.701Z,27.33
2019-01-11T16:14:33.577Z,17.70
2019-01-11T16:17:05.800Z,21.83
2019-01-11T16:19:34.332Z,13.93
2019-01-11T16:22:04.526Z,14.93
2019-01-11T16:24:33.558Z,12.90
2019-01-11T16:27:02.160Z,21.40
2019-01-11T16:29:30.723Z,19.80
2019-01-11T16:31:59.555Z,18.27
2019-01-11T16:34:28.386Z,34.53
2019-01-11T16:36:57.950Z,25.17
2019-01-11T16:39:26.420Z,20.03
2019-01-11T16:41:55.286Z,45.27
2019-01-11T16:44:24.091Z,32.63
2019-01-11T16:46:52.728Z,27.07
2019-01-11T16:49:22.792Z,15.27
2019-01-11T16:51:51.376Z,27.53
2019-01-11T16:54:19.899Z,41.30
2019-01-11T16:56:48.696Z,23.20
2019-01-11T16:59:17.205Z,21.30
2019-01-11T17:01:45.695Z,32.10
2019-01-11T17:04:14.298Z,27.30
2019-01-11T17:06:42.784Z,21.40
2019-01-11T17:09:11.471Z,19.27
2019-01-11T17:11:40.169Z,21.10
2019-01-11T17:14:08.821Z,38.80
2019-01-11T17:16:37.896Z,23.87
2019-01-11T17:19:06.663Z,15.67
2019-01-11T17:21:35.244Z,18.43
2019-01-11T17:24:03.955Z,24.17
2019-01-11T17:26:32.595Z,22.10
2019-01-11T17:29:01.087Z,30.20
2019-01-11T17:31:29.844Z,36.03
2019-01-11T17:33:58.807Z,30.40
2019-01-11T17:36:27.505Z,23.63
2019-01-11T17:38:55.970Z,19.53
2019-01-11T17:41:24.402Z,18.50
2019-01-11T17:43:52.877Z,17.97
2019-01-11T17:46:21.518Z,21.03
2019-01-11T17:48:50.068Z,25.07
2019-01-11T17:51:18.531Z,44.23
2019-01-11T17:53:47.176Z,23.33
2019-01-11T17:56:16.098Z,26.20
2019-01-11T17:58:44.744Z,20.63
2019-01-11T18:01:13.320Z,20.80
2019-01-11T18:03:42.118Z,21.70
2019-01-11T18:06:10.992Z,27.87
2019-01-11T18:08:39.858Z,27.83
2019-01-11T18:11:08.479Z,22.67
2019-01-11T18:13:36.986Z,19.00
2019-01-11T18:16:05.764Z,19.57
2019-01-11T18:18:34.215Z,19.33
2019-01-11T18:21:02.828Z,20.43
2019-01-11T18:23:31.425Z,26.90
2019-01-11T18:25:59.905Z,25.40
2019-01-11T18:28:28.466Z,22.97
2019-01-11T18:30:56.956Z,20.37
2019-01-11T18:33:25.431Z,20.57
2019-01-11T18:35:54.014Z,18.33
2019-01-11T18:38:22.545Z,17.70
2019-01-11T18:40:51.060Z,18.17
2019-01-11T18:43:19.491Z,20.67
2019-01-11T18:45:48.113Z,19.70
2019-01-11T18:48:16.717Z,16.70
2019-01-11T18:50:45.433Z,18.10
2019-01-11T18:53:14.169Z,18.90
2019-01-11T18:55:42.766Z,16.73
2019-01-11T18:58:11.252Z,18.63
2019-01-11T19:00:39.874Z,18.50
2019-01-11T19:03:08.359Z,21.40
2019-01-11T19:05:36.845Z,22.47
2019-01-11T19:08:05.398Z,20.20
2019-01-11T19:10:33.912Z,18.80
2019-01-11T19:13:02.531Z,18.03
2019-01-11T19:15:31.163Z,17.33
2019-01-11T19:17:59.720Z,18.30
2019-01-11T19:20:28.794Z,15.20
2019-01-11T19:22:57.248Z,14.53
2019-01-11T19:25:25.901Z,14.50
2019-01-11T19:27:54.421Z,14.30
2019-01-11T19:30:27.089Z,15.07
2019-01-11T19:32:56.818Z,14.23
2019-01-11T19:35:26.530Z,14.20
2019-01-11T19:37:55.204Z,16.20
2019-01-11T19:40:24.312Z,13.90
2019-01-11T19:42:52.906Z,15.23
2019-01-11T19:45:21.470Z,13.87
2019-01-11T19:47:50.059Z,13.10
2019-01-11T19:50:20.887Z,14.93
2019-01-11T19:52:50.321Z,13.10
2019-01-11T19:55:19.100Z,14.13
2019-01-11T19:57:48.123Z,13.97
2019-01-11T20:00:19.886Z,12.70
2019-01-11T20:02:48.674Z,12.67
2019-01-11T20:05:17.500Z,12.83
2019-01-11T20:07:46.598Z,13.17
2019-01-11T20:10:18.367Z,14.77
2019-01-11T20:12:47.087Z,15.17
2019-01-11T20:15:15.815Z,15.13
2019-01-11T20:17:44.637Z,15.47
2019-01-11T20:20:14.721Z,17.00
2019-01-11T20:22:43.543Z,16.13
2019-01-11T20:25:21.027Z,15.53
2019-01-11T20:27:49.614Z,14.97
2019-01-11T20:30:23.433Z,15.70
2019-01-11T20:32:52.365Z,15.87
2019-01-11T20:35:21.076Z,16.20
2019-01-11T20:37:49.696Z,16.40
2019-01-11T20:40:18.304Z,16.50
2019-01-11T20:42:46.822Z,16.20
2019-01-11T20:45:18.353Z,16.53
2019-01-11T20:47:47.033Z,16.10
2019-01-11T20:50:17.716Z,15.57
2019-01-11T20:52:46.342Z,16.27
2019-01-11T20:55:14.948Z,16.73
2019-01-11T20:57:44.866Z,15.33
2019-01-11T21:00:17.191Z,15.27
2019-01-11T21:02:46.065Z,16.37
2019-01-11T21:05:15.575Z,16.00
2019-01-11T21:07:44.653Z,14.87
2019-01-11T21:10:14.750Z,15.00
2019-01-11T21:12:43.592Z,15.40
2019-01-11T21:15:15.368Z,15.13
2019-01-11T21:17:44.004Z,14.57
2019-01-11T21:20:15.092Z,15.30
2019-01-11T21:22:44.043Z,14.17
2019-01-11T21:25:14.570Z,14.37
2019-01-11T21:27:43.157Z,13.47
2019-01-11T21:30:20.327Z,14.03
2019-01-11T21:32:48.980Z,13.50
2019-01-11T21:35:17.664Z,13.70
2019-01-11T21:37:46.365Z,14.00
2019-01-11T21:40:16.886Z,13.30
2019-01-11T21:42:46.021Z,13.90
2019-01-11T21:45:14.808Z,13.80
2019-01-11T21:47:43.385Z,14.20
2019-01-11T21:50:17.649Z,13.90
2019-01-11T21:52:46.244Z,13.63
2019-01-11T21:55:15.058Z,13.10
2019-01-11T21:57:44.234Z,12.83
2019-01-11T22:00:19.534Z,12.83
2019-01-11T22:02:48.208Z,13.60
2019-01-11T22:05:17.030Z,14.00
2019-01-11T22:07:45.982Z,13.07
2019-01-11T22:10:16.158Z,13.60
2019-01-11T22:12:45.052Z,13.40
2019-01-11T22:15:16.098Z,14.07
2019-01-11T22:17:44.930Z,12.90
2019-01-11T22:20:18.755Z,11.60
2019-01-11T22:22:47.317Z,11.17
2019-01-11T22:25:16.686Z,11.30
2019-01-11T22:27:45.395Z,10.63
2019-01-11T22:30:16.594Z,11.50
2019-01-11T22:32:45.400Z,11.37
2019-01-11T22:35:14.714Z,11.53
2019-01-11T22:37:44.028Z,11.00
2019-01-11T22:40:15.035Z,10.43
2019-01-11T22:42:43.707Z,10.93
2019-01-11T22:45:15.913Z,9.63
2019-01-11T22:47:44.660Z,10.00
2019-01-11T22:50:15.227Z,9.43
2019-01-11T22:52:43.713Z,9.10
2019-01-11T22:55:15.409Z,9.23
2019-01-11T22:57:44.027Z,9.57
2019-01-11T23:00:26.554Z,8.67
2019-01-11T23:02:58.476Z,8.47
2019-01-11T23:05:27.361Z,8.80
2019-01-11T23:07:56.888Z,9.53
2019-01-11T23:10:52.161Z,8.57
2019-01-11T23:13:20.894Z,8.37
2019-01-11T23:15:50.470Z,8.17
2019-01-11T23:18:19.185Z,8.87
2019-01-11T23:20:47.941Z,8.30
2019-01-11T23:23:16.663Z,8.57
2019-01-11T23:25:45.561Z,9.10
2019-01-11T23:28:14.269Z,10.70
2019-01-11T23:30:42.801Z,9.80
2019-01-11T23:33:11.455Z,9.30
2019-01-11T23:35:40.624Z,10.30
2019-01-11T23:38:09.139Z,9.33
2019-01-11T23:40:37.809Z,9.43
2019-01-11T23:43:06.405Z,10.17
2019-01-11T23:45:34.983Z,9.70
2019-01-11T23:48:03.494Z,10.33
2019-01-11T23:50:33.035Z,10.97
2019-01-11T23:53:02.088Z,10.17
2019-01-11T23:55:30.661Z,11.10
2019-01-11T23:57:59.210Z,10.37
